createdAt,value
2019-01-17T00:03:39.856Z,4.60
2019-01-17T00:06:39.514Z,4.70
2019-01-17T00:09:39.986Z,4.70
2019-01-17T00:18:40.672Z,4.70
2019-01-17T00:21:22.713Z,4.70
2019-01-17T00:24:05.585Z,4.70
2019-01-17T00:27:05.961Z,4.70
2019-01-17T00:29:51.658Z,4.70
2019-01-17T00:32:36.828Z,4.70
2019-01-17T00:35:22.328Z,4.70
2019-01-17T00:38:22.109Z,4.70
2019-01-17T00:41:04.464Z,4.70
2019-01-17T00:43:49.553Z,4.70
2019-01-17T00:46:31.512Z,4.70
2019-01-17T00:49:16.624Z,4.70
2019-01-17T00:52:02.884Z,4.60
2019-01-17T00:54:38.657Z,4.70
2019-01-17T00:57:24.598Z,4.70
2019-01-17T01:00:00.803Z,4.70
2019-01-17T01:02:34.133Z,4.70
2019-01-17T01:05:04.361Z,4.80
2019-01-17T01:07:43.205Z,4.80
2019-01-17T01:10:25.560Z,4.90
2019-01-17T01:13:11.775Z,4.80
2019-01-17T01:16:18.971Z,4.80
2019-01-17T01:19:26.058Z,4.80
2019-01-17T01:22:33.181Z,4.80
2019-01-17T01:25:40.316Z,4.80
2019-01-17T01:28:47.413Z,4.90
2019-01-17T01:31:54.549Z,4.90
2019-01-17T01:35:01.637Z,4.90
2019-01-17T01:38:08.938Z,4.90
2019-01-17T01:41:16.025Z,5.00
2019-01-17T01:44:23.167Z,5.00
2019-01-17T01:47:30.258Z,5.00
2019-01-17T01:53:16.649Z,5.10
2019-01-17T01:56:04.553Z,4.70
2019-01-17T01:58:52.508Z,5.00
2019-01-17T02:01:40.417Z,5.00
2019-01-17T02:04:28.393Z,5.00
2019-01-17T02:07:16.337Z,5.00
2019-01-17T02:10:24.952Z,5.00
2019-01-17T02:13:12.901Z,5.00
2019-01-17T02:16:00.881Z,4.90
2019-01-17T02:18:48.869Z,4.90
2019-01-17T02:21:17.409Z,4.90
2019-01-17T02:23:45.968Z,4.90
2019-01-17T02:26:14.560Z,4.90
2019-01-17T02:28:43.129Z,4.90
2019-01-17T02:31:11.804Z,4.90
2019-01-17T02:33:40.374Z,4.90
2019-01-17T02:36:09.011Z,4.90
2019-01-17T02:38:56.959Z,4.90
2019-01-17T02:41:44.874Z,4.90
2019-01-17T02:44:32.825Z,4.90
2019-01-17T02:47:14.169Z,4.90
2019-01-17T02:49:55.038Z,4.80
2019-01-17T02:52:35.609Z,4.80
2019-01-17T02:55:16.199Z,4.90
2019-01-17T02:57:57.509Z,4.80
2019-01-17T03:00:38.679Z,4.80
2019-01-17T03:03:19.590Z,4.70
2019-01-17T03:06:00.739Z,4.80
2019-01-17T03:08:41.843Z,4.80
2019-01-17T03:11:22.667Z,4.70
2019-01-17T03:14:03.397Z,4.70
2019-01-17T03:16:44.357Z,4.70
2019-01-17T03:19:25.349Z,4.70
2019-01-17T03:22:06.095Z,4.60
2019-01-17T03:24:46.663Z,4.60
2019-01-17T03:27:15.720Z,4.60
2019-01-17T03:30:24.384Z,4.60
2019-01-17T03:33:12.284Z,4.60
2019-01-17T03:36:00.234Z,4.60
2019-01-17T03:38:48.141Z,4.50
2019-01-17T03:41:36.068Z,4.50
2019-01-17T03:44:24.091Z,4.60
2019-01-17T03:47:11.990Z,4.60
2019-01-17T03:49:59.919Z,4.60
2019-01-17T03:52:47.873Z,4.60
2019-01-17T03:58:35.468Z,4.70
2019-01-17T04:01:16.270Z,4.80
2019-01-17T04:03:56.647Z,4.80
2019-01-17T04:06:37.688Z,4.80
2019-01-17T04:09:18.749Z,4.90
2019-01-17T04:11:59.487Z,4.90
2019-01-17T04:14:40.585Z,5.00
2019-01-17T04:17:21.082Z,4.90
2019-01-17T04:20:01.865Z,4.90
2019-01-17T04:22:42.527Z,4.90
2019-01-17T04:25:23.281Z,4.90
2019-01-17T04:28:03.876Z,4.90
2019-01-17T04:30:45.251Z,4.90
2019-01-17T04:33:26.236Z,4.90
2019-01-17T04:36:07.004Z,4.80
2019-01-17T04:38:47.369Z,4.80
2019-01-17T04:41:27.785Z,4.90
2019-01-17T04:44:08.583Z,4.90
2019-01-17T04:46:37.202Z,4.90
2019-01-17T04:49:05.798Z,4.80
2019-01-17T04:51:34.385Z,4.80
2019-01-17T04:54:02.994Z,4.80
2019-01-17T04:56:31.536Z,4.80
2019-01-17T04:59:00.214Z,4.80
2019-01-17T05:01:28.816Z,4.80
2019-01-17T05:04:16.716Z,4.70
2019-01-17T05:07:04.733Z,4.70
2019-01-17T05:09:52.692Z,4.70
2019-01-17T05:12:40.610Z,4.70
2019-01-17T05:15:28.525Z,4.70
2019-01-17T05:18:16.460Z,4.70
2019-01-17T05:21:04.360Z,4.70
2019-01-17T05:23:52.328Z,4.70
2019-01-17T05:26:40.222Z,4.70
2019-01-17T05:29:28.294Z,4.70
2019-01-17T05:32:16.192Z,4.70
2019-01-17T05:35:04.899Z,4.70
2019-01-17T05:37:52.870Z,5.20
2019-01-17T05:40:40.815Z,4.70
2019-01-17T05:43:28.714Z,4.60
2019-01-17T05:46:09.314Z,4.60
2019-01-17T05:48:50.565Z,4.60
2019-01-17T05:51:31.389Z,4.70
2019-01-17T05:54:11.795Z,4.80
2019-01-17T05:56:52.479Z,4.80
2019-01-17T05:59:33.546Z,4.90
2019-01-17T06:02:14.860Z,4.90
2019-01-17T06:04:55.980Z,4.80
2019-01-17T06:07:36.880Z,4.90
2019-01-17T06:10:17.860Z,4.90
2019-01-17T06:12:58.493Z,4.80
2019-01-17T06:15:39.732Z,4.90
2019-01-17T06:18:20.447Z,4.90
2019-01-17T06:21:01.312Z,4.90
2019-01-17T06:23:42.265Z,4.90
2019-01-17T06:26:23.577Z,5.00
2019-01-17T06:29:04.368Z,5.00
2019-01-17T06:31:45.653Z,4.90
2019-01-17T06:34:26.315Z,4.90
2019-01-17T06:37:07.066Z,4.80
2019-01-17T06:39:48.406Z,4.80
2019-01-17T06:42:28.878Z,4.80
2019-01-17T06:45:09.734Z,4.60
2019-01-17T06:47:50.553Z,4.60
2019-01-17T06:50:31.382Z,4.60
2019-01-17T06:53:12.666Z,4.60
2019-01-17T06:55:53.318Z,4.60
2019-01-17T06:58:34.458Z,4.50
2019-01-17T07:01:13.458Z,4.50
2019-01-17T07:04:01.357Z,4.50
2019-01-17T07:06:49.320Z,4.50
2019-01-17T07:09:37.221Z,4.50
2019-01-17T07:12:25.165Z,4.50
2019-01-17T07:18:21.689Z,4.50
2019-01-17T07:21:09.661Z,4.60
2019-01-17T07:23:57.639Z,4.60
2019-01-17T07:26:45.548Z,4.60
2019-01-17T07:29:33.489Z,4.60
2019-01-17T07:32:21.385Z,4.60
2019-01-17T07:35:09.607Z,4.60
2019-01-17T07:37:57.508Z,4.60
2019-01-17T07:40:45.473Z,4.70
2019-01-17T07:46:40.429Z,4.70
2019-01-17T07:49:21.290Z,4.70
2019-01-17T07:52:02.440Z,4.70
2019-01-17T07:54:43.530Z,4.70
2019-01-17T07:57:24.283Z,4.80
2019-01-17T08:00:05.201Z,4.70
2019-01-17T08:02:46.159Z,4.80
2019-01-17T08:05:26.792Z,4.90
2019-01-17T08:08:07.573Z,4.80
2019-01-17T08:10:48.385Z,4.80
2019-01-17T08:13:29.110Z,4.80
2019-01-17T08:16:09.597Z,4.90
2019-01-17T08:18:50.653Z,4.90
2019-01-17T08:21:31.265Z,4.90
2019-01-17T08:24:12.353Z,4.90
2019-01-17T08:26:53.285Z,5.00
2019-01-17T08:29:34.444Z,4.90
2019-01-17T08:32:15.201Z,4.90
2019-01-17T08:34:55.637Z,4.90
2019-01-17T08:37:36.425Z,4.90
2019-01-17T08:40:20.350Z,5.00
2019-01-17T08:42:47.257Z,5.00
2019-01-17T08:45:35.308Z,5.00
2019-01-17T08:48:23.236Z,5.00
2019-01-17T08:54:04.313Z,5.10
2019-01-17T08:56:52.263Z,5.20
2019-01-17T08:59:40.161Z,5.10
2019-01-17T09:02:28.118Z,5.20
2019-01-17T09:05:16.022Z,5.20
2019-01-17T09:08:04.040Z,5.20
2019-01-17T09:10:51.946Z,5.20
2019-01-17T09:13:39.898Z,5.20
2019-01-17T09:16:27.810Z,5.20
2019-01-17T09:19:15.756Z,5.10
2019-01-17T09:22:03.730Z,5.10
2019-01-17T09:24:51.705Z,5.20
2019-01-17T09:30:46.524Z,5.20
2019-01-17T09:33:34.420Z,5.20
2019-01-17T09:36:03.029Z,5.20
2019-01-17T09:38:31.584Z,5.20
2019-01-17T09:41:00.156Z,5.30
2019-01-17T09:43:28.788Z,5.30
2019-01-17T09:46:16.686Z,5.40
2019-01-17T09:48:57.966Z,5.40
2019-01-17T09:51:38.733Z,5.50
2019-01-17T09:54:19.473Z,5.50
2019-01-17T09:57:00.049Z,5.50
2019-01-17T09:59:40.866Z,5.60
2019-01-17T10:02:21.789Z,5.50
2019-01-17T10:05:02.383Z,5.50
2019-01-17T10:07:43.533Z,5.50
2019-01-17T10:10:15.246Z,5.40
2019-01-17T10:12:43.946Z,5.40
2019-01-17T10:15:15.865Z,5.50
2019-01-17T10:17:56.127Z,5.50
2019-01-17T10:20:36.604Z,5.50
2019-01-17T10:23:26.478Z,5.50
2019-01-17T10:26:01.044Z,5.50
2019-01-17T10:28:57.943Z,5.50
2019-01-17T10:31:29.580Z,5.50
2019-01-17T10:34:07.292Z,5.60
2019-01-17T10:37:14.566Z,5.60
2019-01-17T10:40:21.908Z,5.60
2019-01-17T10:43:29.187Z,5.70
2019-01-17T10:46:36.405Z,5.70
2019-01-17T10:49:17.629Z,5.70
2019-01-17T10:51:58.283Z,5.80
2019-01-17T10:57:21.498Z,5.80
2019-01-17T11:00:01.892Z,5.90
2019-01-17T11:02:42.945Z,6.00
2019-01-17T11:05:23.849Z,6.00
2019-01-17T11:08:05.156Z,6.10
2019-01-17T11:10:45.749Z,6.20
2019-01-17T11:13:26.841Z,6.20
2019-01-17T11:16:07.342Z,6.30
2019-01-17T11:18:47.690Z,6.30
2019-01-17T11:21:28.606Z,6.40
2019-01-17T11:24:09.421Z,6.50
2019-01-17T11:26:50.156Z,6.40
2019-01-17T11:29:31.349Z,6.40
2019-01-17T11:32:11.993Z,6.30
2019-01-17T11:34:43.668Z,6.30
2019-01-17T11:37:34.672Z,6.30
2019-01-17T11:40:06.345Z,6.30
2019-01-17T11:43:13.560Z,6.30
2019-01-17T11:46:22.244Z,6.30
2019-01-17T11:49:29.466Z,6.20
2019-01-17T11:52:38.288Z,6.20
2019-01-17T11:55:46.921Z,6.20
2019-01-17T11:58:59.800Z,6.10
2019-01-17T12:02:03.855Z,6.10
2019-01-17T12:04:44.881Z,6.10
2019-01-17T12:07:25.791Z,6.00
2019-01-17T12:12:36.488Z,6.00
2019-01-17T12:15:24.392Z,6.00
2019-01-17T12:18:12.339Z,6.00
2019-01-17T12:21:00.259Z,6.00
2019-01-17T12:23:48.166Z,6.10
2019-01-17T12:26:36.070Z,6.00
2019-01-17T12:29:24.022Z,6.00
2019-01-17T12:31:52.593Z,6.00
2019-01-17T12:34:21.152Z,6.10
2019-01-17T12:36:49.819Z,6.10
2019-01-17T12:39:18.447Z,6.10
2019-01-17T12:41:47.078Z,6.10
2019-01-17T12:44:35.013Z,6.10
2019-01-17T12:47:22.915Z,6.10
2019-01-17T12:50:31.878Z,6.10
2019-01-17T12:53:21.151Z,6.10
2019-01-17T12:56:09.159Z,5.90
2019-01-17T12:58:57.064Z,5.50
2019-01-17T13:01:45.059Z,5.20
2019-01-17T13:04:32.981Z,5.00
2019-01-17T13:07:20.881Z,4.90
2019-01-17T13:10:29.550Z,4.90
2019-01-17T13:13:17.466Z,4.90
2019-01-17T13:16:05.577Z,5.00
2019-01-17T13:18:53.481Z,5.10
2019-01-17T13:21:41.505Z,5.20
2019-01-17T13:24:29.408Z,5.30
2019-01-17T13:27:17.354Z,5.40
2019-01-17T13:30:25.977Z,5.40
2019-01-17T13:33:14.151Z,5.40
2019-01-17T13:39:10.692Z,5.40
2019-01-17T13:41:59.021Z,5.50
2019-01-17T13:44:48.184Z,5.60
2019-01-17T13:47:36.096Z,5.60
2019-01-17T13:50:24.117Z,5.70
2019-01-17T13:53:12.027Z,5.60
2019-01-17T13:55:59.972Z,5.60
2019-01-17T13:58:48.018Z,5.60
2019-01-17T14:01:35.964Z,5.60
2019-01-17T14:07:23.773Z,5.60
2019-01-17T14:10:04.267Z,5.50
2019-01-17T14:12:45.362Z,5.50
2019-01-17T14:15:26.569Z,5.50
2019-01-17T14:18:07.222Z,5.50
2019-01-17T14:20:48.178Z,5.50
2019-01-17T14:23:29.073Z,5.40
2019-01-17T14:26:09.554Z,5.40
2019-01-17T14:28:50.663Z,5.40
2019-01-17T14:31:31.720Z,5.40
2019-01-17T14:34:12.281Z,5.40
2019-01-17T14:36:53.335Z,5.40
2019-01-17T14:39:34.578Z,5.40
2019-01-17T14:42:15.660Z,5.40
2019-01-17T14:44:56.345Z,5.30
2019-01-17T14:47:36.901Z,5.30
2019-01-17T14:50:17.364Z,5.30
2019-01-17T14:52:58.664Z,5.20
2019-01-17T14:55:39.549Z,5.50
2019-01-17T14:58:20.461Z,5.80
2019-01-17T15:01:01.105Z,5.90
2019-01-17T15:03:29.657Z,5.80
2019-01-17T15:06:17.580Z,5.60
2019-01-17T15:09:26.554Z,5.50
2019-01-17T15:15:22.289Z,5.30
2019-01-17T15:18:02.657Z,5.20
2019-01-17T15:20:43.377Z,5.20
2019-01-17T15:23:24.010Z,5.10
2019-01-17T15:26:05.125Z,5.10
2019-01-17T15:28:46.297Z,5.00
2019-01-17T15:31:27.203Z,5.00
2019-01-17T15:34:07.981Z,5.00
2019-01-17T15:36:36.576Z,5.00
2019-01-17T15:39:25.985Z,4.90
2019-01-17T15:42:13.964Z,4.90
2019-01-17T15:45:01.865Z,4.90
2019-01-17T15:47:49.877Z,4.90
2019-01-17T15:50:37.778Z,4.90
2019-01-17T15:53:25.724Z,5.00
2019-01-17T15:56:13.624Z,4.90
2019-01-17T15:59:01.564Z,4.90
2019-01-17T16:01:49.465Z,4.90
2019-01-17T16:04:30.299Z,4.80
2019-01-17T16:07:11.302Z,4.80
2019-01-17T16:09:51.986Z,4.80
2019-01-17T16:12:32.944Z,4.80
2019-01-17T16:15:13.567Z,4.70
2019-01-17T16:17:54.432Z,4.80
2019-01-17T16:20:35.260Z,4.80
2019-01-17T16:23:15.969Z,4.80
2019-01-17T16:25:56.817Z,4.80
2019-01-17T16:28:37.260Z,4.80
2019-01-17T16:31:18.581Z,4.70
2019-01-17T16:33:59.880Z,4.60
2019-01-17T16:36:41.020Z,4.50
2019-01-17T16:39:21.928Z,4.40
2019-01-17T16:42:02.620Z,4.30
2019-01-17T16:44:43.693Z,4.30
2019-01-17T16:47:12.251Z,4.20
2019-01-17T16:50:00.201Z,4.20
2019-01-17T16:52:59.742Z,4.20
2019-01-17T16:55:18.582Z,4.10
2019-01-17T16:57:49.269Z,4.10
2019-01-17T17:00:38.262Z,4.20
2019-01-17T17:06:25.533Z,4.10
2019-01-17T17:12:20.345Z,4.10
2019-01-17T17:15:29.017Z,4.10
2019-01-17T17:18:16.938Z,4.10
2019-01-17T17:20:45.510Z,4.20
2019-01-17T17:23:33.434Z,4.10
2019-01-17T17:26:21.389Z,4.10
2019-01-17T17:29:09.409Z,4.00
2019-01-17T17:31:57.345Z,4.10
2019-01-17T17:34:45.276Z,4.10
2019-01-17T17:37:33.191Z,4.10
2019-01-17T17:40:41.853Z,4.00
2019-01-17T17:43:29.765Z,4.00
2019-01-17T17:46:17.714Z,3.90
2019-01-17T17:49:05.619Z,3.90
2019-01-17T17:51:53.563Z,3.80
2019-01-17T17:54:41.473Z,3.80
2019-01-17T17:57:29.420Z,3.80
2019-01-17T18:00:55.842Z,3.60
2019-01-17T18:03:43.781Z,3.50
2019-01-17T18:06:31.695Z,3.30
2019-01-17T18:09:12.777Z,3.10
2019-01-17T18:11:53.947Z,2.90
2019-01-17T18:14:34.279Z,2.80
2019-01-17T18:17:15.219Z,2.80
2019-01-17T18:19:56.157Z,2.70
2019-01-17T18:22:38.237Z,2.70
2019-01-17T18:25:19.081Z,2.60
2019-01-17T18:28:00.174Z,2.60
2019-01-17T18:30:40.625Z,2.50
2019-01-17T18:33:21.133Z,2.40
2019-01-17T18:36:02.396Z,2.40
2019-01-17T18:38:31.133Z,2.30
2019-01-17T18:41:19.065Z,2.30
2019-01-17T18:47:13.937Z,2.30
2019-01-17T18:50:01.909Z,2.30
2019-01-17T18:52:50.013Z,2.30
2019-01-17T18:55:37.985Z,2.30
2019-01-17T18:58:25.868Z,2.40
2019-01-17T19:04:20.931Z,2.50
2019-01-17T19:09:55.934Z,2.60
2019-01-17T19:12:36.910Z,2.70
2019-01-17T19:15:18.043Z,2.60
2019-01-17T19:17:58.993Z,2.50
2019-01-17T19:20:40.167Z,2.60
2019-01-17T19:23:21.072Z,2.50
2019-01-17T19:26:02.389Z,2.50
2019-01-17T19:28:42.915Z,2.50
2019-01-17T19:31:24.107Z,2.50
2019-01-17T19:34:05.369Z,2.50
2019-01-17T19:36:46.345Z,2.50
2019-01-17T19:39:26.778Z,2.50
2019-01-17T19:42:07.544Z,2.50
2019-01-17T19:44:48.005Z,2.50
2019-01-17T19:47:29.190Z,2.50
2019-01-17T19:52:52.488Z,2.40
2019-01-17T19:55:33.370Z,2.40
2019-01-17T19:58:14.468Z,2.40
2019-01-17T20:00:55.358Z,2.40
2019-01-17T20:03:23.956Z,2.50
2019-01-17T20:05:52.645Z,2.50
2019-01-17T20:08:21.204Z,2.60
2019-01-17T20:10:49.761Z,2.60
2019-01-17T20:13:38.029Z,2.60
2019-01-17T20:16:25.947Z,2.60
2019-01-17T20:19:13.900Z,2.60
2019-01-17T20:22:01.821Z,2.70
2019-01-17T20:24:49.764Z,2.80
2019-01-17T20:27:38.406Z,2.80
2019-01-17T20:30:47.043Z,2.60
2019-01-17T20:33:34.996Z,2.40
2019-01-17T20:36:36.866Z,2.10
2019-01-17T20:39:12.525Z,2.00
2019-01-17T20:42:00.424Z,1.90
2019-01-17T20:44:48.393Z,1.70
2019-01-17T20:47:16.936Z,1.70
2019-01-17T20:49:45.780Z,2.10
2019-01-17T20:52:14.416Z,2.50
2019-01-17T20:54:43.101Z,2.60
2019-01-17T20:57:12.251Z,2.60
2019-01-17T20:59:40.966Z,2.70
2019-01-17T21:02:15.158Z,2.80
2019-01-17T21:05:03.306Z,2.80
2019-01-17T21:07:51.214Z,2.40
2019-01-17T21:10:32.634Z,2.10
2019-01-17T21:13:13.658Z,2.00
2019-01-17T21:16:01.072Z,1.90
2019-01-17T21:18:37.002Z,1.80
2019-01-17T21:21:18.247Z,1.70
2019-01-17T21:23:59.066Z,1.60
2019-01-17T21:26:39.828Z,1.50
2019-01-17T21:29:20.985Z,1.40
2019-01-17T21:32:01.379Z,1.30
2019-01-17T21:34:41.932Z,1.30
2019-01-17T21:37:22.519Z,1.20
2019-01-17T21:40:04.186Z,1.20
2019-01-17T21:42:44.790Z,1.10
2019-01-17T21:45:25.627Z,1.10
2019-01-17T21:48:05.934Z,1.10
2019-01-17T21:50:47.157Z,1.10
2019-01-17T21:53:28.405Z,1.10
2019-01-17T21:56:09.626Z,1.00
2019-01-17T21:58:55.762Z,1.00
2019-01-17T22:01:33.837Z,1.00
2019-01-17T22:04:14.241Z,1.00
2019-01-17T22:06:55.093Z,1.00
2019-01-17T22:09:36.272Z,1.10
2019-01-17T22:12:16.770Z,1.10
2019-01-17T22:14:57.928Z,1.00
2019-01-17T22:17:39.011Z,1.00
2019-01-17T22:20:19.753Z,1.00
2019-01-17T22:23:00.862Z,0.90
2019-01-17T22:25:42.187Z,1.00
2019-01-17T22:28:23.230Z,0.90
2019-01-17T22:31:05.111Z,0.90
2019-01-17T22:33:45.949Z,0.90
2019-01-17T22:36:26.529Z,0.90
2019-01-17T22:39:06.872Z,0.90
2019-01-17T22:41:47.291Z,0.90
2019-01-17T22:44:28.605Z,0.90
2019-01-17T22:47:09.473Z,0.80
2019-01-17T22:49:50.731Z,0.80
2019-01-17T22:52:31.077Z,0.80
2019-01-17T22:55:12.391Z,0.70
2019-01-17T22:57:52.701Z,0.80
2019-01-17T23:00:35.157Z,0.80
2019-01-17T23:03:15.509Z,0.80
2019-01-17T23:05:56.330Z,0.80
2019-01-17T23:08:37.367Z,0.80
2019-01-17T23:11:18.250Z,0.80
2019-01-17T23:13:59.558Z,0.70
2019-01-17T23:16:40.025Z,0.70
2019-01-17T23:19:20.944Z,0.70
2019-01-17T23:22:02.001Z,0.70
2019-01-17T23:24:42.427Z,0.60
2019-01-17T23:27:23.160Z,0.60
2019-01-17T23:30:03.984Z,0.50
2019-01-17T23:32:45.376Z,0.50
2019-01-17T23:35:25.737Z,0.40
2019-01-17T23:38:06.422Z,0.40
2019-01-17T23:40:47.358Z,0.30
2019-01-17T23:43:28.216Z,0.30
2019-01-17T23:46:09.335Z,0.30
2019-01-17T23:48:50.362Z,0.20
2019-01-17T23:51:30.835Z,0.20
2019-01-17T23:54:11.312Z,0.20
2019-01-17T23:56:52.294Z,0.20
2019-01-17T23:59:33.196Z,0.10
